sensor_id;sensor_type;location;lat;lon;timestamp;pressure;altitude;pressure_sealevel;temperature;humidity
53506;BME280;39388;50.936;6.848;2022-07-05T00:02:27;101433.78;;;19.50;56.23
53506;BME280;39388;50.936;6.848;2022-07-05T00:04:57;101414.09;;;19.36;56.33
53506;BME280;39388;50.936;6.848;2022-07-05T00:07:28;101439.16;;;19.45;56.58
53506;BME280;39388;50.936;6.848;2022-07-05T00:09:58;101428.91;;;19.39;56.68
53506;BME280;39388;50.936;6.848;2022-07-05T00:12:31;101421.09;;;19.37;56.67
53506;BME280;39388;50.936;6.848;2022-07-05T00:15:05;101429.84;;;19.35;56.99
53506;BME280;39388;50.936;6.848;2022-07-05T00:17:35;101437.78;;;19.32;57.15
53506;BME280;39388;50.936;6.848;2022-07-05T00:20:06;101440.41;;;19.32;57.09
53506;BME280;39388;50.936;6.848;2022-07-05T00:22:37;101431.88;;;19.25;57.28
53506;BME280;39388;50.936;6.848;2022-07-05T00:25:07;101447.56;;;19.25;57.41
53506;BME280;39388;50.936;6.848;2022-07-05T00:27:38;101434.69;;;19.19;57.50
53506;BME280;39388;50.936;6.848;2022-07-05T00:30:09;101440.81;;;19.18;57.57
53506;BME280;39388;50.936;6.848;2022-07-05T00:32:40;101449.50;;;19.18;57.67
53506;BME280;39388;50.936;6.848;2022-07-05T00:35:10;101443.47;;;19.16;57.84
53506;BME280;39388;50.936;6.848;2022-07-05T00:37:41;101436.72;;;19.09;57.61
53506;BME280;39388;50.936;6.848;2022-07-05T00:40:11;101438.56;;;19.05;57.86
53506;BME280;39388;50.936;6.848;2022-07-05T00:42:42;101436.19;;;18.98;57.99
53506;BME280;39388;50.936;6.848;2022-07-05T00:45:12;101440.44;;;19.00;58.08
53506;BME280;39388;50.936;6.848;2022-07-05T00:47:42;101443.88;;;19.02;58.10
53506;BME280;39388;50.936;6.848;2022-07-05T00:50:13;101430.16;;;18.94;58.28
53506;BME280;39388;50.936;6.848;2022-07-05T00:52:44;101430.28;;;18.91;57.94
53506;BME280;39388;50.936;6.848;2022-07-05T00:55:15;101447.53;;;18.96;58.49
53506;BME280;39388;50.936;6.848;2022-07-05T00:57:46;101445.97;;;18.89;58.45
53506;BME280;39388;50.936;6.848;2022-07-05T01:00:17;101440.94;;;18.83;58.51
53506;BME280;39388;50.936;6.848;2022-07-05T01:02:47;101453.19;;;18.81;58.72
53506;BME280;39388;50.936;6.848;2022-07-05T01:05:19;101450.66;;;18.78;58.75
53506;BME280;39388;50.936;6.848;2022-07-05T01:07:49;101443.78;;;18.74;58.82
53506;BME280;39388;50.936;6.848;2022-07-05T01:10:19;101447.41;;;18.68;58.90
53506;BME280;39388;50.936;6.848;2022-07-05T01:12:50;101443.09;;;18.67;59.29
53506;BME280;39388;50.936;6.848;2022-07-05T01:15:21;101446.66;;;18.64;59.31
53506;BME280;39388;50.936;6.848;2022-07-05T01:17:52;101438.97;;;18.58;59.22
53506;BME280;39388;50.936;6.848;2022-07-05T01:20:22;101437.31;;;18.56;59.28
53506;BME280;39388;50.936;6.848;2022-07-05T01:22:57;101448.56;;;18.58;59.52
53506;BME280;39388;50.936;6.848;2022-07-05T01:25:30;101440.88;;;18.52;59.64
53506;BME280;39388;50.936;6.848;2022-07-05T01:28:03;101453.94;;;18.53;59.71
53506;BME280;39388;50.936;6.848;2022-07-05T01:30:35;101439.38;;;18.43;59.89
53506;BME280;39388;50.936;6.848;2022-07-05T01:33:07;101444.59;;;18.43;60.08
53506;BME280;39388;50.936;6.848;2022-07-05T01:35:37;101443.06;;;18.34;60.26
53506;BME280;39388;50.936;6.848;2022-07-05T01:38:10;101441.38;;;18.31;60.13
53506;BME280;39388;50.936;6.848;2022-07-05T01:40:41;101456.22;;;18.29;60.37
53506;BME280;39388;50.936;6.848;2022-07-05T01:43:12;101451.16;;;18.23;60.53
53506;BME280;39388;50.936;6.848;2022-07-05T01:45:44;101458.94;;;18.25;60.65
53506;BME280;39388;50.936;6.848;2022-07-05T01:48:16;101459.91;;;18.22;60.55
53506;BME280;39388;50.936;6.848;2022-07-05T01:50:51;101466.00;;;18.21;60.21
53506;BME280;39388;50.936;6.848;2022-07-05T01:53:28;101458.31;;;18.16;59.96
53506;BME280;39388;50.936;6.848;2022-07-05T01:56:00;101450.59;;;18.12;60.16
53506;BME280;39388;50.936;6.848;2022-07-05T01:58:31;101449.72;;;18.11;60.07
53506;BME280;39388;50.936;6.848;2022-07-05T02:01:02;101459.25;;;18.12;60.17
53506;BME280;39388;50.936;6.848;2022-07-05T02:03:32;101457.59;;;18.10;60.42
53506;BME280;39388;50.936;6.848;2022-07-05T02:06:02;101456.84;;;18.04;60.41
53506;BME280;39388;50.936;6.848;2022-07-05T02:08:33;101447.34;;;18.02;60.43
53506;BME280;39388;50.936;6.848;2022-07-05T02:11:03;101450.91;;;17.98;60.59
53506;BME280;39388;50.936;6.848;2022-07-05T02:13:34;101453.53;;;17.98;60.62
53506;BME280;39388;50.936;6.848;2022-07-05T02:16:04;101469.22;;;17.96;60.40
53506;BME280;39388;50.936;6.848;2022-07-05T02:18:35;101464.13;;;17.92;60.73
53506;BME280;39388;50.936;6.848;2022-07-05T02:21:05;101461.53;;;17.90;60.69
53506;BME280;39388;50.936;6.848;2022-07-05T02:23:35;101463.28;;;17.89;61.01
53506;BME280;39388;50.936;6.848;2022-07-05T02:26:06;101462.34;;;17.92;61.14
53506;BME280;39388;50.936;6.848;2022-07-05T02:28:37;101459.75;;;17.92;61.00
53506;BME280;39388;50.936;6.848;2022-07-05T02:31:07;101454.56;;;17.91;61.09
53506;BME280;39388;50.936;6.848;2022-07-05T02:33:38;101454.47;;;17.95;61.17
53506;BME280;39388;50.936;6.848;2022-07-05T02:36:10;101462.13;;;18.01;61.07
53506;BME280;39388;50.936;6.848;2022-07-05T02:38:40;101442.25;;;17.97;61.27
53506;BME280;39388;50.936;6.848;2022-07-05T02:41:11;101443.91;;;18.00;61.14
53506;BME280;39388;50.936;6.848;2022-07-05T02:43:42;101443.97;;;17.98;61.11
53506;BME280;39388;50.936;6.848;2022-07-05T02:46:12;101450.97;;;17.96;61.08
53506;BME280;39388;50.936;6.848;2022-07-05T02:48:43;101450.19;;;17.91;61.29
53506;BME280;39388;50.936;6.848;2022-07-05T02:51:13;101446.00;;;17.85;61.06
53506;BME280;39388;50.936;6.848;2022-07-05T02:53:46;101459.03;;;17.85;61.11
53506;BME280;39388;50.936;6.848;2022-07-05T02:56:16;101458.31;;;17.79;61.42
53506;BME280;39388;50.936;6.848;2022-07-05T02:58:47;101456.59;;;17.78;61.45
53506;BME280;39388;50.936;6.848;2022-07-05T03:01:17;101466.16;;;17.79;61.52
53506;BME280;39388;50.936;6.848;2022-07-05T03:03:48;101454.22;;;17.68;61.36
53506;BME280;39388;50.936;6.848;2022-07-05T03:06:18;101470.59;;;17.73;61.86
53506;BME280;39388;50.936;6.848;2022-07-05T03:08:48;101457.72;;;17.67;61.75
53506;BME280;39388;50.936;6.848;2022-07-05T03:11:19;101467.97;;;17.75;61.67
53506;BME280;39388;50.936;6.848;2022-07-05T03:13:50;101465.31;;;17.77;61.78
53506;BME280;39388;50.936;6.848;2022-07-05T03:16:21;101463.47;;;17.82;61.65
53506;BME280;39388;50.936;6.848;2022-07-05T03:18:53;101459.09;;;17.82;61.51
53506;BME280;39388;50.936;6.848;2022-07-05T03:21:24;101458.25;;;17.82;61.71
53506;BME280;39388;50.936;6.848;2022-07-05T03:23:54;101466.84;;;17.85;61.56
53506;BME280;39388;50.936;6.848;2022-07-05T03:26:24;101470.34;;;17.84;61.63
53506;BME280;39388;50.936;6.848;2022-07-05T03:28:55;101465.22;;;17.81;61.74
53506;BME280;39388;50.936;6.848;2022-07-05T03:31:25;101467.94;;;17.77;61.74
53506;BME280;39388;50.936;6.848;2022-07-05T03:33:56;101472.38;;;17.73;62.05
53506;BME280;39388;50.936;6.848;2022-07-05T03:36:26;101475.88;;;17.72;62.16
53506;BME280;39388;50.936;6.848;2022-07-05T03:38:57;101474.16;;;17.71;62.09
53506;BME280;39388;50.936;6.848;2022-07-05T03:41:27;101474.25;;;17.66;62.29
53506;BME280;39388;50.936;6.848;2022-07-05T03:43:58;101481.91;;;17.74;62.31
53506;BME280;39388;50.936;6.848;2022-07-05T03:46:28;101472.50;;;17.67;62.34
53506;BME280;39388;50.936;6.848;2022-07-05T03:48:58;101480.25;;;17.70;62.51
53506;BME280;39388;50.936;6.848;2022-07-05T03:51:29;101487.25;;;17.68;62.46
53506;BME280;39388;50.936;6.848;2022-07-05T03:53:59;101486.28;;;17.72;62.38
53506;BME280;39388;50.936;6.848;2022-07-05T03:56:30;101478.56;;;17.67;62.35
53506;BME280;39388;50.936;6.848;2022-07-05T03:59:00;101479.47;;;17.66;62.41
53506;BME280;39388;50.936;6.848;2022-07-05T04:01:31;101479.41;;;17.68;62.42
53506;BME280;39388;50.936;6.848;2022-07-05T04:04:01;101496.63;;;17.77;62.36
53506;BME280;39388;50.936;6.848;2022-07-05T04:06:32;101488.84;;;17.73;62.33
53506;BME280;39388;50.936;6.848;2022-07-05T04:09:02;101477.59;;;17.71;62.15
53506;BME280;39388;50.936;6.848;2022-07-05T04:11:33;101482.63;;;17.79;62.21
53506;BME280;39388;50.936;6.848;2022-07-05T04:14:03;101495.56;;;17.85;62.00
53506;BME280;39388;50.936;6.848;2022-07-05T04:16:34;101484.44;;;17.77;62.48
53506;BME280;39388;50.936;6.848;2022-07-05T04:19:04;101494.84;;;17.79;62.30
53506;BME280;39388;50.936;6.848;2022-07-05T04:21:35;101493.00;;;17.84;62.43
53506;BME280;39388;50.936;6.848;2022-07-05T04:24:05;101502.44;;;17.89;62.32
53506;BME280;39388;50.936;6.848;2022-07-05T04:26:36;101493.94;;;17.80;62.40
53506;BME280;39388;50.936;6.848;2022-07-05T04:29:06;101499.84;;;17.88;62.64
53506;BME280;39388;50.936;6.848;2022-07-05T04:31:37;101502.44;;;17.89;62.69
53506;BME280;39388;50.936;6.848;2022-07-05T04:34:07;101480.91;;;17.80;62.66
53506;BME280;39388;50.936;6.848;2022-07-05T04:36:38;101512.59;;;18.02;62.60
53506;BME280;39388;50.936;6.848;2022-07-05T04:39:10;101515.84;;;18.12;62.44
53506;BME280;39388;50.936;6.848;2022-07-05T04:41:40;101512.34;;;18.13;62.02
53506;BME280;39388;50.936;6.848;2022-07-05T04:44:11;101500.25;;;18.07;62.31
53506;BME280;39388;50.936;6.848;2022-07-05T04:46:41;101507.19;;;18.08;62.08
53506;BME280;39388;50.936;6.848;2022-07-05T04:49:11;101486.56;;;17.99;62.23
53506;BME280;39388;50.936;6.848;2022-07-05T04:51:42;101514.00;;;18.15;62.34
53506;BME280;39388;50.936;6.848;2022-07-05T04:54:12;101495.84;;;18.11;62.50
53506;BME280;39388;50.936;6.848;2022-07-05T04:56:43;101461.53;;;17.90;62.45
53506;BME280;39388;50.936;6.848;2022-07-05T04:59:13;101489.88;;;18.05;62.49
53506;BME280;39388;50.936;6.848;2022-07-05T05:01:43;101507.00;;;18.16;62.46
53506;BME280;39388;50.936;6.848;2022-07-05T05:04:14;101518.16;;;18.23;62.57
53506;BME280;39388;50.936;6.848;2022-07-05T05:06:44;101504.41;;;18.16;62.77
53506;BME280;39388;50.936;6.848;2022-07-05T05:09:15;101510.34;;;18.23;62.43
53506;BME280;39388;50.936;6.848;2022-07-05T05:11:45;101527.53;;;18.31;62.40
53506;BME280;39388;50.936;6.848;2022-07-05T05:14:15;101525.75;;;18.33;62.20
53506;BME280;39388;50.936;6.848;2022-07-05T05:16:46;101518.88;;;18.29;62.09
53506;BME280;39388;50.936;6.848;2022-07-05T05:19:16;101504.22;;;18.24;61.98
53506;BME280;39388;50.936;6.848;2022-07-05T05:21:47;101528.31;;;18.37;61.85
53506;BME280;39388;50.936;6.848;2022-07-05T05:24:17;101519.69;;;18.31;61.99
53506;BME280;39388;50.936;6.848;2022-07-05T05:26:48;101518.72;;;18.37;61.92
53506;BME280;39388;50.936;6.848;2022-07-05T05:29:19;101526.28;;;18.48;61.79
53506;BME280;39388;50.936;6.848;2022-07-05T05:31:51;101519.16;;;18.56;61.50
53506;BME280;39388;50.936;6.848;2022-07-05T05:34:21;101536.84;;;18.78;61.31
53506;BME280;39388;50.936;6.848;2022-07-05T05:36:51;101517.72;;;18.77;60.84
53506;BME280;39388;50.936;6.848;2022-07-05T05:39:22;101526.44;;;19.09;60.27
53506;BME280;39388;50.936;6.848;2022-07-05T05:41:52;101511.53;;;19.13;59.64
53506;BME280;39388;50.936;6.848;2022-07-05T05:44:23;101524.94;;;19.32;59.45
53506;BME280;39388;50.936;6.848;2022-07-05T05:46:53;101530.84;;;19.40;59.19
53506;BME280;39388;50.936;6.848;2022-07-05T05:49:24;101522.28;;;19.34;59.20
53506;BME280;39388;50.936;6.848;2022-07-05T05:51:54;101489.81;;;19.11;59.46
53506;BME280;39388;50.936;6.848;2022-07-05T05:54:24;101517.34;;;19.23;58.88
53506;BME280;39388;50.936;6.848;2022-07-05T05:56:55;101526.69;;;19.32;58.56
53506;BME280;39388;50.936;6.848;2022-07-05T05:59:25;101521.47;;;19.32;58.40
53506;BME280;39388;50.936;6.848;2022-07-05T06:01:55;101532.47;;;19.45;58.51
53506;BME280;39388;50.936;6.848;2022-07-05T06:04:26;101518.44;;;19.47;58.02
53506;BME280;39388;50.936;6.848;2022-07-05T06:06:56;101498.59;;;19.40;57.58
53506;BME280;39388;50.936;6.848;2022-07-05T06:09:27;101519.09;;;19.54;57.82
53506;BME280;39388;50.936;6.848;2022-07-05T06:11:57;101538.00;;;19.64;57.71
53506;BME280;39388;50.936;6.848;2022-07-05T06:14:27;101529.19;;;19.68;57.51
53506;BME280;39388;50.936;6.848;2022-07-05T06:16:58;101515.38;;;19.91;56.99
53506;BME280;39388;50.936;6.848;2022-07-05T06:19:28;101529.59;;;20.11;56.62
53506;BME280;39388;50.936;6.848;2022-07-05T06:21:58;101535.53;;;20.16;56.46
53506;BME280;39388;50.936;6.848;2022-07-05T06:24:29;101523.44;;;20.12;56.45
53506;BME280;39388;50.936;6.848;2022-07-05T06:26:59;101520.16;;;20.33;55.78
53506;BME280;39388;50.936;6.848;2022-07-05T06:29:30;101523.25;;;20.72;55.29
53506;BME280;39388;50.936;6.848;2022-07-05T06:32:00;101501.72;;;21.13;54.27
53506;BME280;39388;50.936;6.848;2022-07-05T06:34:30;101529.22;;;21.96;52.31
53506;BME280;39388;50.936;6.848;2022-07-05T06:37:01;101513.97;;;22.69;50.67
53506;BME280;39388;50.936;6.848;2022-07-05T06:39:31;101545.75;;;23.44;49.25
53506;BME280;39388;50.936;6.848;2022-07-05T06:42:03;101563.28;;;24.03;48.62
53506;BME280;39388;50.936;6.848;2022-07-05T06:44:34;101569.19;;;24.80;47.50
53506;BME280;39388;50.936;6.848;2022-07-05T06:47:04;101569.75;;;25.70;44.98
53506;BME280;39388;50.936;6.848;2022-07-05T06:49:35;101546.94;;;26.31;43.82
53506;BME280;39388;50.936;6.848;2022-07-05T06:52:05;101559.69;;;27.14;41.71
53506;BME280;39388;50.936;6.848;2022-07-05T06:54:35;101562.75;;;27.79;40.72
53506;BME280;39388;50.936;6.848;2022-07-05T06:57:06;101554.84;;;28.32;39.43
53506;BME280;39388;50.936;6.848;2022-07-05T06:59:36;101566.22;;;28.88;38.31
53506;BME280;39388;50.936;6.848;2022-07-05T07:02:07;101564.25;;;29.54;37.51
53506;BME280;39388;50.936;6.848;2022-07-05T07:04:37;101572.06;;;30.17;36.79
53506;BME280;39388;50.936;6.848;2022-07-05T07:07:08;101576.44;;;30.18;35.79
53506;BME280;39388;50.936;6.848;2022-07-05T07:10:02;101564.03;;;29.82;35.89
53506;BME280;39388;50.936;6.848;2022-07-05T07:12:33;101559.09;;;29.88;35.93
53506;BME280;39388;50.936;6.848;2022-07-05T07:15:04;101566.75;;;29.69;35.57
53506;BME280;39388;50.936;6.848;2022-07-05T07:17:34;101580.16;;;29.91;35.19
53506;BME280;39388;50.936;6.848;2022-07-05T07:20:05;101562.75;;;30.47;33.94
53506;BME280;39388;50.936;6.848;2022-07-05T07:22:35;101577.25;;;30.90;33.36
53506;BME280;39388;50.936;6.848;2022-07-05T07:25:06;101566.84;;;31.44;32.34
53506;BME280;39388;50.936;6.848;2022-07-05T07:30:18;101563.09;;;32.02;30.63
53506;BME280;39388;50.936;6.848;2022-07-05T07:32:49;101567.19;;;32.06;30.99
53506;BME280;39388;50.936;6.848;2022-07-05T07:35:20;101566.91;;;32.42;29.91
53506;BME280;39388;50.936;6.848;2022-07-05T07:37:50;101576.22;;;32.69;29.50
53506;BME280;39388;50.936;6.848;2022-07-05T07:40:21;101575.66;;;32.65;28.83
53506;BME280;39388;50.936;6.848;2022-07-05T07:42:51;101571.94;;;32.77;28.54
53506;BME280;39388;50.936;6.848;2022-07-05T07:45:21;101572.88;;;33.29;27.87
53506;BME280;39388;50.936;6.848;2022-07-05T07:47:52;101572.22;;;33.56;27.43
53506;BME280;39388;50.936;6.848;2022-07-05T07:50:22;101573.44;;;33.73;27.43
53506;BME280;39388;50.936;6.848;2022-07-05T07:52:53;101574.19;;;33.64;27.20
53506;BME280;39388;50.936;6.848;2022-07-05T07:55:23;101570.34;;;33.37;27.58
53506;BME280;39388;50.936;6.848;2022-07-05T07:57:53;101590.63;;;33.49;27.32
53506;BME280;39388;50.936;6.848;2022-07-05T08:00:24;101581.50;;;33.42;27.14
53506;BME280;39388;50.936;6.848;2022-07-05T08:02:55;101580.53;;;33.63;26.93
53506;BME280;39388;50.936;6.848;2022-07-05T08:05:26;101580.44;;;33.74;26.11
53506;BME280;39388;50.936;6.848;2022-07-05T08:07:57;101589.53;;;33.52;26.71
53506;BME280;39388;50.936;6.848;2022-07-05T08:10:52;101550.34;;;33.72;26.22
53506;BME280;39388;50.936;6.848;2022-07-05T08:13:42;101583.72;;;34.27;26.22
53506;BME280;39388;50.936;6.848;2022-07-05T08:16:13;101556.66;;;34.40;25.71
53506;BME280;39388;50.936;6.848;2022-07-05T08:18:47;101555.00;;;34.29;25.82
53506;BME280;39388;50.936;6.848;2022-07-05T08:21:36;101584.53;;;34.47;24.90
53506;BME280;39388;50.936;6.848;2022-07-05T08:24:11;101593.84;;;34.33;24.56
53506;BME280;39388;50.936;6.848;2022-07-05T08:26:42;101567.63;;;33.97;24.79
53506;BME280;39388;50.936;6.848;2022-07-05T08:29:13;101577.34;;;33.89;24.98
53506;BME280;39388;50.936;6.848;2022-07-05T08:31:48;101565.47;;;33.52;24.98
53506;BME280;39388;50.936;6.848;2022-07-05T08:34:19;101584.34;;;32.67;26.04
53506;BME280;39388;50.936;6.848;2022-07-05T08:36:50;101579.97;;;32.56;26.19
53506;BME280;39388;50.936;6.848;2022-07-05T08:39:20;101582.16;;;33.03;25.32
53506;BME280;39388;50.936;6.848;2022-07-05T08:41:51;101574.47;;;32.58;25.40
53506;BME280;39388;50.936;6.848;2022-07-05T08:44:22;101582.63;;;32.45;25.86
53506;BME280;39388;50.936;6.848;2022-07-05T08:46:55;101580.00;;;32.97;25.36
53506;BME280;39388;50.936;6.848;2022-07-05T08:49:27;101573.19;;;33.35;24.72
53506;BME280;39388;50.936;6.848;2022-07-05T08:51:57;101580.69;;;33.61;24.33
53506;BME280;39388;50.936;6.848;2022-07-05T08:54:29;101575.81;;;33.96;24.33
53506;BME280;39388;50.936;6.848;2022-07-05T08:57:00;101575.13;;;34.04;24.21
53506;BME280;39388;50.936;6.848;2022-07-05T08:59:30;101571.16;;;34.18;25.19
53506;BME280;39388;50.936;6.848;2022-07-05T09:02:02;101585.16;;;34.21;25.14
53506;BME280;39388;50.936;6.848;2022-07-05T09:04:33;101584.16;;;34.22;25.83
53506;BME280;39388;50.936;6.848;2022-07-05T09:07:07;101570.19;;;33.99;26.34
53506;BME280;39388;50.936;6.848;2022-07-05T09:09:39;101583.19;;;34.23;25.80
53506;BME280;39388;50.936;6.848;2022-07-05T09:12:14;101590.16;;;33.75;25.54
53506;BME280;39388;50.936;6.848;2022-07-05T09:14:45;101582.28;;;32.71;26.18
53506;BME280;39388;50.936;6.848;2022-07-05T09:17:15;101579.66;;;31.62;27.04
53506;BME280;39388;50.936;6.848;2022-07-05T09:27:56;101583.03;;;29.64;28.53
53506;BME280;39388;50.936;6.848;2022-07-05T09:30:36;101583.88;;;29.65;28.68
53506;BME280;39388;50.936;6.848;2022-07-05T09:33:13;101586.81;;;29.73;29.04
53506;BME280;39388;50.936;6.848;2022-07-05T09:35:56;101586.31;;;29.68;29.08
53506;BME280;39388;50.936;6.848;2022-07-05T09:38:31;101594.13;;;29.32;29.15
53506;BME280;39388;50.936;6.848;2022-07-05T09:41:01;101578.22;;;28.93;29.39
53506;BME280;39388;50.936;6.848;2022-07-05T09:43:32;101587.09;;;28.79;29.33
53506;BME280;39388;50.936;6.848;2022-07-05T09:46:04;101593.66;;;28.74;29.33
53506;BME280;39388;50.936;6.848;2022-07-05T09:48:35;101580.47;;;28.46;29.64
53506;BME280;39388;50.936;6.848;2022-07-05T09:51:07;101590.53;;;28.41;29.88
53506;BME280;39388;50.936;6.848;2022-07-05T09:53:48;101574.72;;;28.52;30.75
53506;BME280;39388;50.936;6.848;2022-07-05T09:56:18;101569.66;;;28.62;30.41
53506;BME280;39388;50.936;6.848;2022-07-05T09:58:49;101569.69;;;28.75;30.77
53506;BME280;39388;50.936;6.848;2022-07-05T10:01:26;101591.16;;;28.85;30.44
53506;BME280;39388;50.936;6.848;2022-07-05T10:03:58;101584.75;;;28.62;30.33
53506;BME280;39388;50.936;6.848;2022-07-05T10:06:32;101581.06;;;28.37;30.13
53506;BME280;39388;50.936;6.848;2022-07-05T10:09:03;101577.13;;;28.30;29.74
53506;BME280;39388;50.936;6.848;2022-07-05T10:11:34;101586.41;;;28.50;30.09
53506;BME280;39388;50.936;6.848;2022-07-05T10:14:19;101586.00;;;28.69;30.11
53506;BME280;39388;50.936;6.848;2022-07-05T10:17:10;101581.25;;;28.74;29.75
53506;BME280;39388;50.936;6.848;2022-07-05T10:19:45;101571.09;;;28.94;29.79
53506;BME280;39388;50.936;6.848;2022-07-05T10:22:16;101585.19;;;29.20;29.74
53506;BME280;39388;50.936;6.848;2022-07-05T10:24:47;101583.16;;;29.24;29.96
53506;BME280;39388;50.936;6.848;2022-07-05T10:27:18;101584.03;;;28.86;30.13
53506;BME280;39388;50.936;6.848;2022-07-05T10:29:49;101569.44;;;28.39;30.33
53506;BME280;39388;50.936;6.848;2022-07-05T10:32:22;101575.13;;;28.06;30.51
53506;BME280;39388;50.936;6.848;2022-07-05T10:34:54;101571.34;;;27.83;30.82
53506;BME280;39388;50.936;6.848;2022-07-05T10:37:29;101574.28;;;27.78;31.19
53506;BME280;39388;50.936;6.848;2022-07-05T10:40:03;101582.41;;;27.75;31.21
53506;BME280;39388;50.936;6.848;2022-07-05T10:42:48;101591.44;;;27.58;31.31
53506;BME280;39388;50.936;6.848;2022-07-05T10:45:33;101579.22;;;27.41;31.17
53506;BME280;39388;50.936;6.848;2022-07-05T10:50:54;101572.09;;;27.85;31.09
53506;BME280;39388;50.936;6.848;2022-07-05T10:53:27;101575.03;;;28.07;30.87
53506;BME280;39388;50.936;6.848;2022-07-05T10:58:40;101581.31;;;27.92;30.63
53506;BME280;39388;50.936;6.848;2022-07-05T11:11:42;101568.56;;;28.26;28.40
53506;BME280;39388;50.936;6.848;2022-07-05T11:22:27;101582.34;;;27.62;29.52
53506;BME280;39388;50.936;6.848;2022-07-05T11:24:59;101575.44;;;27.45;29.61
53506;BME280;39388;50.936;6.848;2022-07-05T11:27:30;101569.38;;;27.72;29.67
53506;BME280;39388;50.936;6.848;2022-07-05T11:30:03;101581.13;;;27.95;29.51
53506;BME280;39388;50.936;6.848;2022-07-05T11:32:35;101570.56;;;27.81;29.11
53506;BME280;39388;50.936;6.848;2022-07-05T11:35:19;101552.06;;;27.66;29.30
53506;BME280;39388;50.936;6.848;2022-07-05T11:38:04;101566.94;;;27.96;29.40
53506;BME280;39388;50.936;6.848;2022-07-05T11:40:37;101557.75;;;28.29;29.68
53506;BME280;39388;50.936;6.848;2022-07-05T11:43:08;101558.53;;;28.57;28.96
53506;BME280;39388;50.936;6.848;2022-07-05T11:45:39;101555.88;;;28.83;29.52
53506;BME280;39388;50.936;6.848;2022-07-05T11:48:15;101565.56;;;29.10;29.35
53506;BME280;39388;50.936;6.848;2022-07-05T11:50:46;101536.34;;;28.97;29.77
53506;BME280;39388;50.936;6.848;2022-07-05T11:53:31;101551.19;;;28.74;29.49
53506;BME280;39388;50.936;6.848;2022-07-05T11:56:02;101555.84;;;28.44;29.97
53506;BME280;39388;50.936;6.848;2022-07-05T11:58:32;101549.47;;;28.06;30.07
53506;BME280;39388;50.936;6.848;2022-07-05T12:01:03;101535.97;;;27.69;30.30
53506;BME280;39388;50.936;6.848;2022-07-05T12:03:33;101541.13;;;27.43;31.13
53506;BME280;39388;50.936;6.848;2022-07-05T12:06:14;101548.09;;;27.44;30.49
53506;BME280;39388;50.936;6.848;2022-07-05T12:09:01;101543.94;;;27.40;29.85
53506;BME280;39388;50.936;6.848;2022-07-05T12:11:31;101532.31;;;27.43;30.30
53506;BME280;39388;50.936;6.848;2022-07-05T12:14:22;101526.97;;;27.72;30.25
53506;BME280;39388;50.936;6.848;2022-07-05T12:17:12;101525.53;;;28.08;29.50
53506;BME280;39388;50.936;6.848;2022-07-05T12:19:44;101519.00;;;28.27;29.08
53506;BME280;39388;50.936;6.848;2022-07-05T12:22:17;101531.84;;;28.33;28.50
53506;BME280;39388;50.936;6.848;2022-07-05T12:24:47;101520.22;;;28.08;28.68
53506;BME280;39388;50.936;6.848;2022-07-05T12:27:17;101519.09;;;27.98;28.96
53506;BME280;39388;50.936;6.848;2022-07-05T12:29:48;101525.28;;;27.98;29.02
53506;BME280;39388;50.936;6.848;2022-07-05T12:32:18;101531.84;;;27.92;29.35
53506;BME280;39388;50.936;6.848;2022-07-05T12:34:49;101539.56;;;27.68;29.76
53506;BME280;39388;50.936;6.848;2022-07-05T12:37:24;101525.88;;;27.61;29.57
53506;BME280;39388;50.936;6.848;2022-07-05T12:40:07;101522.00;;;27.80;29.30
53506;BME280;39388;50.936;6.848;2022-07-05T12:42:38;101527.19;;;27.96;29.34
53506;BME280;39388;50.936;6.848;2022-07-05T12:50:28;101524.47;;;27.83;29.27
53506;BME280;39388;50.936;6.848;2022-07-05T12:53:04;101520.88;;;27.84;29.18
53506;BME280;39388;50.936;6.848;2022-07-05T12:56:03;101521.88;;;27.96;29.19
53506;BME280;39388;50.936;6.848;2022-07-05T12:58:56;101523.06;;;27.77;29.34
53506;BME280;39388;50.936;6.848;2022-07-05T13:01:31;101526.63;;;27.49;29.27
53506;BME280;39388;50.936;6.848;2022-07-05T13:06:42;101516.13;;;27.47;28.33
53506;BME280;39388;50.936;6.848;2022-07-05T13:09:15;101517.13;;;27.74;28.67
53506;BME280;39388;50.936;6.848;2022-07-05T13:11:46;101524.91;;;27.90;28.51
53506;BME280;39388;50.936;6.848;2022-07-05T13:14:16;101519.63;;;27.90;28.42
53506;BME280;39388;50.936;6.848;2022-07-05T13:16:46;101517.00;;;28.03;28.46
53506;BME280;39388;50.936;6.848;2022-07-05T13:19:17;101522.09;;;28.20;28.36
53506;BME280;39388;50.936;6.848;2022-07-05T13:21:47;101513.34;;;28.18;28.33
53506;BME280;39388;50.936;6.848;2022-07-05T13:24:18;101509.06;;;28.16;27.71
53506;BME280;39388;50.936;6.848;2022-07-05T13:26:48;101517.34;;;28.11;28.13
53506;BME280;39388;50.936;6.848;2022-07-05T13:29:19;101518.59;;;28.05;28.57
53506;BME280;39388;50.936;6.848;2022-07-05T13:31:50;101534.31;;;28.08;28.72
53506;BME280;39388;50.936;6.848;2022-07-05T13:34:21;101526.03;;;28.13;28.74
53506;BME280;39388;50.936;6.848;2022-07-05T13:36:55;101530.56;;;27.98;29.20
53506;BME280;39388;50.936;6.848;2022-07-05T13:39:26;101527.47;;;27.64;29.82
53506;BME280;39388;50.936;6.848;2022-07-05T13:41:57;101537.97;;;27.51;30.24
53506;BME280;39388;50.936;6.848;2022-07-05T13:44:27;101538.81;;;27.66;30.08
53506;BME280;39388;50.936;6.848;2022-07-05T13:46:57;101534.25;;;27.96;29.71
53506;BME280;39388;50.936;6.848;2022-07-05T13:49:28;101531.78;;;28.07;29.61
53506;BME280;39388;50.936;6.848;2022-07-05T13:51:59;101536.28;;;27.92;29.49
53506;BME280;39388;50.936;6.848;2022-07-05T13:54:31;101540.66;;;27.78;29.63
53506;BME280;39388;50.936;6.848;2022-07-05T13:57:02;101538.66;;;27.55;30.10
53506;BME280;39388;50.936;6.848;2022-07-05T13:59:32;101531.56;;;27.41;30.31